sensor_id;sensor_type;location;lat;lon;timestamp;temperature;humidity
75170;SHT31;63749;49.186;9.222;2023-05-10T00:01:42;14.25;94.85
75170;SHT31;63749;49.186;9.222;2023-05-10T00:04:07;14.20;95.42
75170;SHT31;63749;49.186;9.222;2023-05-10T00:06:32;14.08;95.78
75170;SHT31;63749;49.186;9.222;2023-05-10T00:08:58;14.09;95.46
75170;SHT31;63749;49.186;9.222;2023-05-10T00:11:23;13.99;95.47
75170;SHT31;63749;49.186;9.222;2023-05-10T00:13:49;13.92;95.65
75170;SHT31;63749;49.186;9.222;2023-05-10T00:16:14;13.94;95.48
75170;SHT31;63749;49.186;9.222;2023-05-10T00:18:40;13.85;95.81
75170;SHT31;63749;49.186;9.222;2023-05-10T00:21:05;13.81;96.19
75170;SHT31;63749;49.186;9.222;2023-05-10T00:23:31;13.81;95.98
75170;SHT31;63749;49.186;9.222;2023-05-10T00:25:56;13.78;96.18
75170;SHT31;63749;49.186;9.222;2023-05-10T00:28:22;13.78;95.72
75170;SHT31;63749;49.186;9.222;2023-05-10T00:30:47;13.76;95.95
75170;SHT31;63749;49.186;9.222;2023-05-10T00:33:12;13.78;96.30
75170;SHT31;63749;49.186;9.222;2023-05-10T00:35:38;13.76;96.24
75170;SHT31;63749;49.186;9.222;2023-05-10T00:38:03;13.78;96.17
75170;SHT31;63749;49.186;9.222;2023-05-10T00:40:29;13.75;96.41
75170;SHT31;63749;49.186;9.222;2023-05-10T00:42:56;13.74;96.68
75170;SHT31;63749;49.186;9.222;2023-05-10T00:45:21;13.76;96.39
75170;SHT31;63749;49.186;9.222;2023-05-10T00:47:47;13.72;96.63
75170;SHT31;63749;49.186;9.222;2023-05-10T00:50:13;13.71;96.79
75170;SHT31;63749;49.186;9.222;2023-05-10T00:52:38;13.74;96.64
75170;SHT31;63749;49.186;9.222;2023-05-10T00:55:04;13.69;96.89
75170;SHT31;63749;49.186;9.222;2023-05-10T00:57:31;13.68;97.11
75170;SHT31;63749;49.186;9.222;2023-05-10T00:59:56;13.68;97.03
75170;SHT31;63749;49.186;9.222;2023-05-10T01:02:22;13.68;97.06
75170;SHT31;63749;49.186;9.222;2023-05-10T01:04:48;13.69;96.76
75170;SHT31;63749;49.186;9.222;2023-05-10T01:07:14;13.67;96.67
75170;SHT31;63749;49.186;9.222;2023-05-10T01:09:39;13.67;96.83
75170;SHT31;63749;49.186;9.222;2023-05-10T01:12:05;13.69;96.67
75170;SHT31;63749;49.186;9.222;2023-05-10T01:14:32;13.69;96.67
75170;SHT31;63749;49.186;9.222;2023-05-10T01:16:59;13.72;96.27
75170;SHT31;63749;49.186;9.222;2023-05-10T01:19:26;13.75;96.06
75170;SHT31;63749;49.186;9.222;2023-05-10T01:41:18;13.53;94.60
75170;SHT31;63749;49.186;9.222;2023-05-10T01:43:55;13.50;95.32
75170;SHT31;63749;49.186;9.222;2023-05-10T01:46:35;13.48;94.94
75170;SHT31;63749;49.186;9.222;2023-05-10T01:49:02;13.50;94.68
75170;SHT31;63749;49.186;9.222;2023-05-10T01:51:38;13.54;93.90
75170;SHT31;63749;49.186;9.222;2023-05-10T01:54:05;13.54;93.52
75170;SHT31;63749;49.186;9.222;2023-05-10T01:56:32;13.53;93.87
75170;SHT31;63749;49.186;9.222;2023-05-10T01:58:59;13.54;93.97
75170;SHT31;63749;49.186;9.222;2023-05-10T02:01:28;13.50;94.48
75170;SHT31;63749;49.186;9.222;2023-05-10T02:03:55;13.54;93.93
75170;SHT31;63749;49.186;9.222;2023-05-10T02:06:23;13.48;94.08
75170;SHT31;63749;49.186;9.222;2023-05-10T02:08:50;13.47;93.77
75170;SHT31;63749;49.186;9.222;2023-05-10T02:11:17;13.51;93.99
75170;SHT31;63749;49.186;9.222;2023-05-10T02:13:44;13.45;93.96
75170;SHT31;63749;49.186;9.222;2023-05-10T02:16:10;13.48;93.75
75170;SHT31;63749;49.186;9.222;2023-05-10T02:18:36;13.44;93.47
75170;SHT31;63749;49.186;9.222;2023-05-10T02:21:02;13.47;93.44
75170;SHT31;63749;49.186;9.222;2023-05-10T02:23:29;13.47;93.19
75170;SHT31;63749;49.186;9.222;2023-05-10T02:25:56;13.45;93.32
75170;SHT31;63749;49.186;9.222;2023-05-10T02:28:23;13.45;93.60
75170;SHT31;63749;49.186;9.222;2023-05-10T02:30:51;13.44;93.81
75170;SHT31;63749;49.186;9.222;2023-05-10T02:33:18;13.40;93.88
75170;SHT31;63749;49.186;9.222;2023-05-10T02:35:45;13.41;93.89
75170;SHT31;63749;49.186;9.222;2023-05-10T02:38:11;13.43;93.91
75170;SHT31;63749;49.186;9.222;2023-05-10T02:40:38;13.37;94.02
75170;SHT31;63749;49.186;9.222;2023-05-10T02:43:06;13.47;93.46
75170;SHT31;63749;49.186;9.222;2023-05-10T02:45:35;13.41;93.93
75170;SHT31;63749;49.186;9.222;2023-05-10T02:48:01;13.43;93.88
75170;SHT31;63749;49.186;9.222;2023-05-10T02:50:28;13.36;94.39
75170;SHT31;63749;49.186;9.222;2023-05-10T02:53:00;13.43;93.92
75170;SHT31;63749;49.186;9.222;2023-05-10T02:55:30;13.43;93.91
75170;SHT31;63749;49.186;9.222;2023-05-10T02:57:59;13.41;94.06
75170;SHT31;63749;49.186;9.222;2023-05-10T03:00:25;13.30;93.85
75170;SHT31;63749;49.186;9.222;2023-05-10T03:02:51;13.30;94.01
75170;SHT31;63749;49.186;9.222;2023-05-10T03:05:17;13.33;93.64
75170;SHT31;63749;49.186;9.222;2023-05-10T03:07:42;13.21;94.23
75170;SHT31;63749;49.186;9.222;2023-05-10T03:10:08;13.24;94.26
75170;SHT31;63749;49.186;9.222;2023-05-10T03:12:50;13.28;94.20
75170;SHT31;63749;49.186;9.222;2023-05-10T03:17:56;13.21;94.27
75170;SHT31;63749;49.186;9.222;2023-05-10T03:20:48;13.31;93.94
75170;SHT31;63749;49.186;9.222;2023-05-10T03:23:35;13.34;93.73
75170;SHT31;63749;49.186;9.222;2023-05-10T03:26:01;13.34;93.98
75170;SHT31;63749;49.186;9.222;2023-05-10T03:28:27;13.27;94.38
75170;SHT31;63749;49.186;9.222;2023-05-10T03:30:54;13.31;94.34
75170;SHT31;63749;49.186;9.222;2023-05-10T03:33:20;13.34;94.18
75170;SHT31;63749;49.186;9.222;2023-05-10T03:35:46;13.31;94.16
75170;SHT31;63749;49.186;9.222;2023-05-10T03:38:12;13.28;94.69
75170;SHT31;63749;49.186;9.222;2023-05-10T03:40:37;13.31;94.86
75170;SHT31;63749;49.186;9.222;2023-05-10T03:43:03;13.34;94.53
75170;SHT31;63749;49.186;9.222;2023-05-10T03:45:29;13.47;94.30
75170;SHT31;63749;49.186;9.222;2023-05-10T03:47:56;13.44;94.52
75170;SHT31;63749;49.186;9.222;2023-05-10T03:50:22;13.41;94.94
75170;SHT31;63749;49.186;9.222;2023-05-10T03:52:47;13.40;95.35
75170;SHT31;63749;49.186;9.222;2023-05-10T03:55:13;13.30;96.11
75170;SHT31;63749;49.186;9.222;2023-05-10T03:57:38;13.24;96.49
75170;SHT31;63749;49.186;9.222;2023-05-10T04:00:03;13.24;96.62
75170;SHT31;63749;49.186;9.222;2023-05-10T04:02:29;13.23;96.93
75170;SHT31;63749;49.186;9.222;2023-05-10T04:04:55;13.18;97.51
75170;SHT31;63749;49.186;9.222;2023-05-10T04:07:21;13.17;97.61
75170;SHT31;63749;49.186;9.222;2023-05-10T04:09:46;13.13;97.92
75170;SHT31;63749;49.186;9.222;2023-05-10T04:12:12;13.11;98.12
75170;SHT31;63749;49.186;9.222;2023-05-10T04:14:37;13.11;98.16
75170;SHT31;63749;49.186;9.222;2023-05-10T04:17:02;13.17;98.41
75170;SHT31;63749;49.186;9.222;2023-05-10T04:19:31;13.23;98.27
75170;SHT31;63749;49.186;9.222;2023-05-10T04:21:57;13.26;97.61
75170;SHT31;63749;49.186;9.222;2023-05-10T04:24:23;13.31;97.38
75170;SHT31;63749;49.186;9.222;2023-05-10T04:26:49;13.38;96.99
75170;SHT31;63749;49.186;9.222;2023-05-10T04:29:14;13.33;97.16
75170;SHT31;63749;49.186;9.222;2023-05-10T04:31:39;13.37;96.92
75170;SHT31;63749;49.186;9.222;2023-05-10T04:34:05;13.37;96.90
75170;SHT31;63749;49.186;9.222;2023-05-10T04:36:30;13.41;96.82
75170;SHT31;63749;49.186;9.222;2023-05-10T04:38:57;13.40;96.65
75170;SHT31;63749;49.186;9.222;2023-05-10T04:41:23;13.44;96.53
75170;SHT31;63749;49.186;9.222;2023-05-10T04:43:49;13.45;96.33
75170;SHT31;63749;49.186;9.222;2023-05-10T04:46:15;13.48;95.89
75170;SHT31;63749;49.186;9.222;2023-05-10T04:48:40;13.50;95.79
75170;SHT31;63749;49.186;9.222;2023-05-10T04:51:06;13.51;95.62
75170;SHT31;63749;49.186;9.222;2023-05-10T04:53:31;13.50;96.12
75170;SHT31;63749;49.186;9.222;2023-05-10T04:55:57;13.57;95.59
75170;SHT31;63749;49.186;9.222;2023-05-10T04:58:22;13.62;95.30
75170;SHT31;63749;49.186;9.222;2023-05-10T05:00:48;13.62;95.19
75170;SHT31;63749;49.186;9.222;2023-05-10T05:03:13;13.67;95.09
75170;SHT31;63749;49.186;9.222;2023-05-10T05:05:38;13.74;94.78
75170;SHT31;63749;49.186;9.222;2023-05-10T05:08:04;13.74;94.81
75170;SHT31;63749;49.186;9.222;2023-05-10T05:10:29;13.79;94.35
75170;SHT31;63749;49.186;9.222;2023-05-10T05:12:55;13.81;94.10
75170;SHT31;63749;49.186;9.222;2023-05-10T05:15:21;13.85;93.90
75170;SHT31;63749;49.186;9.222;2023-05-10T05:17:46;13.81;94.03
75170;SHT31;63749;49.186;9.222;2023-05-10T05:20:12;13.85;93.67
75170;SHT31;63749;49.186;9.222;2023-05-10T05:22:38;13.89;93.24
75170;SHT31;63749;49.186;9.222;2023-05-10T05:25:04;13.96;92.67
75170;SHT31;63749;49.186;9.222;2023-05-10T05:27:30;13.90;93.11
75170;SHT31;63749;49.186;9.222;2023-05-10T05:29:56;13.96;93.02
75170;SHT31;63749;49.186;9.222;2023-05-10T05:32:22;13.96;92.56
75170;SHT31;63749;49.186;9.222;2023-05-10T05:34:48;14.06;92.62
75170;SHT31;63749;49.186;9.222;2023-05-10T05:37:18;14.13;91.95
75170;SHT31;63749;49.186;9.222;2023-05-10T05:39:44;14.27;91.82
75170;SHT31;63749;49.186;9.222;2023-05-10T05:42:10;14.32;91.66
75170;SHT31;63749;49.186;9.222;2023-05-10T05:44:35;14.36;91.05
75170;SHT31;63749;49.186;9.222;2023-05-10T05:47:01;14.46;90.88
75170;SHT31;63749;49.186;9.222;2023-05-10T05:49:26;14.57;90.60
75170;SHT31;63749;49.186;9.222;2023-05-10T05:51:52;14.70;90.75
75170;SHT31;63749;49.186;9.222;2023-05-10T05:54:17;14.81;90.41
75170;SHT31;63749;49.186;9.222;2023-05-10T05:56:42;14.88;90.06
75170;SHT31;63749;49.186;9.222;2023-05-10T05:59:09;14.83;89.55
75170;SHT31;63749;49.186;9.222;2023-05-10T06:01:34;14.85;89.69
75170;SHT31;63749;49.186;9.222;2023-05-10T06:04:00;14.94;89.42
75170;SHT31;63749;49.186;9.222;2023-05-10T06:06:26;14.88;88.82
75170;SHT31;63749;49.186;9.222;2023-05-10T06:08:52;15.04;89.04
75170;SHT31;63749;49.186;9.222;2023-05-10T06:11:17;15.04;88.30
75170;SHT31;63749;49.186;9.222;2023-05-10T06:13:42;15.11;88.47
75170;SHT31;63749;49.186;9.222;2023-05-10T06:16:08;15.16;88.47
75170;SHT31;63749;49.186;9.222;2023-05-10T06:18:33;15.33;87.80
75170;SHT31;63749;49.186;9.222;2023-05-10T06:20:58;15.39;87.35
75170;SHT31;63749;49.186;9.222;2023-05-10T06:23:24;15.54;86.86
75170;SHT31;63749;49.186;9.222;2023-05-10T06:25:51;15.52;86.43
75170;SHT31;63749;49.186;9.222;2023-05-10T06:28:16;15.56;86.72
75170;SHT31;63749;49.186;9.222;2023-05-10T06:30:41;15.57;86.08
75170;SHT31;63749;49.186;9.222;2023-05-10T06:33:06;15.54;85.54
75170;SHT31;63749;49.186;9.222;2023-05-10T06:35:32;15.59;86.18
75170;SHT31;63749;49.186;9.222;2023-05-10T06:37:58;15.59;86.33
75170;SHT31;63749;49.186;9.222;2023-05-10T06:40:23;15.76;85.40
75170;SHT31;63749;49.186;9.222;2023-05-10T06:42:49;15.79;85.12
75170;SHT31;63749;49.186;9.222;2023-05-10T06:45:15;15.82;84.28
75170;SHT31;63749;49.186;9.222;2023-05-10T06:47:41;15.77;84.64
75170;SHT31;63749;49.186;9.222;2023-05-10T06:50:10;15.74;83.27
75170;SHT31;63749;49.186;9.222;2023-05-10T06:52:36;15.80;84.12
75170;SHT31;63749;49.186;9.222;2023-05-10T06:55:03;15.87;83.92
75170;SHT31;63749;49.186;9.222;2023-05-10T06:57:28;15.73;83.10
75170;SHT31;63749;49.186;9.222;2023-05-10T06:59:53;15.77;84.16
75170;SHT31;63749;49.186;9.222;2023-05-10T07:02:20;15.74;84.43
75170;SHT31;63749;49.186;9.222;2023-05-10T07:04:48;15.82;84.48
75170;SHT31;63749;49.186;9.222;2023-05-10T07:07:14;15.96;83.28
75170;SHT31;63749;49.186;9.222;2023-05-10T07:09:39;16.08;83.04
75170;SHT31;63749;49.186;9.222;2023-05-10T07:12:05;16.10;82.91
75170;SHT31;63749;49.186;9.222;2023-05-10T07:14:30;16.14;83.50
75170;SHT31;63749;49.186;9.222;2023-05-10T07:16:55;16.14;83.13
75170;SHT31;63749;49.186;9.222;2023-05-10T07:19:21;16.22;82.34
75170;SHT31;63749;49.186;9.222;2023-05-10T07:21:46;16.04;81.68
75170;SHT31;63749;49.186;9.222;2023-05-10T07:24:12;16.00;81.73
75170;SHT31;63749;49.186;9.222;2023-05-10T07:26:37;16.10;81.14
75170;SHT31;63749;49.186;9.222;2023-05-10T07:29:03;16.04;81.88
75170;SHT31;63749;49.186;9.222;2023-05-10T07:31:28;15.98;81.60
75170;SHT31;63749;49.186;9.222;2023-05-10T07:33:53;15.91;81.28
75170;SHT31;63749;49.186;9.222;2023-05-10T07:36:19;15.89;81.91
75170;SHT31;63749;49.186;9.222;2023-05-10T07:38:44;15.82;81.00
75170;SHT31;63749;49.186;9.222;2023-05-10T07:41:13;15.63;81.73
75170;SHT31;63749;49.186;9.222;2023-05-10T07:43:38;15.47;82.68
75170;SHT31;63749;49.186;9.222;2023-05-10T07:46:04;15.54;82.61
75170;SHT31;63749;49.186;9.222;2023-05-10T07:48:30;15.73;81.51
75170;SHT31;63749;49.186;9.222;2023-05-10T07:50:56;15.73;81.29
75170;SHT31;63749;49.186;9.222;2023-05-10T07:53:21;15.86;80.98
75170;SHT31;63749;49.186;9.222;2023-05-10T07:55:51;15.94;80.55
75170;SHT31;63749;49.186;9.222;2023-05-10T07:58:17;16.10;79.41
75170;SHT31;63749;49.186;9.222;2023-05-10T08:00:42;16.11;78.70
75170;SHT31;63749;49.186;9.222;2023-05-10T08:03:07;16.28;77.71
75170;SHT31;63749;49.186;9.222;2023-05-10T08:05:32;16.22;77.97
75170;SHT31;63749;49.186;9.222;2023-05-10T08:07:58;16.35;76.69
75170;SHT31;63749;49.186;9.222;2023-05-10T08:10:24;16.59;75.89
75170;SHT31;63749;49.186;9.222;2023-05-10T08:12:50;16.80;76.14
75170;SHT31;63749;49.186;9.222;2023-05-10T08:15:15;17.20;75.83
75170;SHT31;63749;49.186;9.222;2023-05-10T08:17:41;17.42;74.95
75170;SHT31;63749;49.186;9.222;2023-05-10T08:20:06;17.44;73.65
75170;SHT31;63749;49.186;9.222;2023-05-10T08:22:32;17.41;73.19
75170;SHT31;63749;49.186;9.222;2023-05-10T08:24:58;17.48;72.03
75170;SHT31;63749;49.186;9.222;2023-05-10T08:27:23;17.35;73.07
75170;SHT31;63749;49.186;9.222;2023-05-10T08:29:48;17.38;73.13
75170;SHT31;63749;49.186;9.222;2023-05-10T08:32:14;17.40;72.11
75170;SHT31;63749;49.186;9.222;2023-05-10T08:34:39;17.50;71.91
75170;SHT31;63749;49.186;9.222;2023-05-10T08:37:05;17.65;71.50
75170;SHT31;63749;49.186;9.222;2023-05-10T08:39:34;17.78;71.46
75170;SHT31;63749;49.186;9.222;2023-05-10T08:42:02;17.69;70.42
75170;SHT31;63749;49.186;9.222;2023-05-10T08:44:27;17.62;69.86
75170;SHT31;63749;49.186;9.222;2023-05-10T08:46:54;17.69;69.90
75170;SHT31;63749;49.186;9.222;2023-05-10T08:49:20;17.85;69.58
75170;SHT31;63749;49.186;9.222;2023-05-10T08:51:50;17.74;68.68
75170;SHT31;63749;49.186;9.222;2023-05-10T08:54:17;17.85;68.51
75170;SHT31;63749;49.186;9.222;2023-05-10T08:56:42;17.96;69.05
75170;SHT31;63749;49.186;9.222;2023-05-10T08:59:07;18.03;68.34
75170;SHT31;63749;49.186;9.222;2023-05-10T09:01:35;17.92;68.42
75170;SHT31;63749;49.186;9.222;2023-05-10T09:04:01;18.08;68.13
75170;SHT31;63749;49.186;9.222;2023-05-10T09:06:27;18.33;67.37
75170;SHT31;63749;49.186;9.222;2023-05-10T09:08:53;18.40;67.17
75170;SHT31;63749;49.186;9.222;2023-05-10T09:11:20;18.60;66.93
75170;SHT31;63749;49.186;9.222;2023-05-10T09:13:48;18.60;66.63
75170;SHT31;63749;49.186;9.222;2023-05-10T09:16:15;18.78;66.31
75170;SHT31;63749;49.186;9.222;2023-05-10T09:18:41;18.71;65.89
75170;SHT31;63749;49.186;9.222;2023-05-10T09:21:06;18.84;65.55
75170;SHT31;63749;49.186;9.222;2023-05-10T09:23:31;18.77;65.97
75170;SHT31;63749;49.186;9.222;2023-05-10T09:26:05;18.58;65.94
75170;SHT31;63749;49.186;9.222;2023-05-10T09:28:34;18.84;65.30
75170;SHT31;63749;49.186;9.222;2023-05-10T09:31:14;18.97;66.53
75170;SHT31;63749;49.186;9.222;2023-05-10T09:33:46;18.97;64.33
75170;SHT31;63749;49.186;9.222;2023-05-10T09:36:12;18.84;65.20
75170;SHT31;63749;49.186;9.222;2023-05-10T09:38:50;18.78;65.20
75170;SHT31;63749;49.186;9.222;2023-05-10T09:41:23;18.64;65.70
75170;SHT31;63749;49.186;9.222;2023-05-10T09:43:49;18.95;64.84
75170;SHT31;63749;49.186;9.222;2023-05-10T09:46:15;18.81;63.60
75170;SHT31;63749;49.186;9.222;2023-05-10T09:48:47;18.80;64.74
75170;SHT31;63749;49.186;9.222;2023-05-10T09:51:20;18.74;65.48
75170;SHT31;63749;49.186;9.222;2023-05-10T09:53:46;18.74;65.57
75170;SHT31;63749;49.186;9.222;2023-05-10T09:56:11;18.60;65.74
75170;SHT31;63749;49.186;9.222;2023-05-10T09:58:37;18.77;66.53
75170;SHT31;63749;49.186;9.222;2023-05-10T10:01:10;18.98;66.09
75170;SHT31;63749;49.186;9.222;2023-05-10T10:03:41;19.18;65.69
75170;SHT31;63749;49.186;9.222;2023-05-10T10:06:07;19.28;64.91
75170;SHT31;63749;49.186;9.222;2023-05-10T10:08:34;19.30;64.09
75170;SHT31;63749;49.186;9.222;2023-05-10T10:10:59;19.56;64.17
75170;SHT31;63749;49.186;9.222;2023-05-10T10:13:24;19.83;63.31
75170;SHT31;63749;49.186;9.222;2023-05-10T10:15:52;20.17;62.42
75170;SHT31;63749;49.186;9.222;2023-05-10T10:18:17;19.71;64.84
75170;SHT31;63749;49.186;9.222;2023-05-10T10:20:43;19.66;63.24
75170;SHT31;63749;49.186;9.222;2023-05-10T10:23:08;19.26;62.87
75170;SHT31;63749;49.186;9.222;2023-05-10T10:25:33;18.99;62.92
75170;SHT31;63749;49.186;9.222;2023-05-10T10:30:51;19.20;62.92
75170;SHT31;63749;49.186;9.222;2023-05-10T10:36:15;19.04;63.53
75170;SHT31;63749;49.186;9.222;2023-05-10T10:41:40;19.43;63.61
75170;SHT31;63749;49.186;9.222;2023-05-10T10:49:52;19.91;61.86
75170;SHT31;63749;49.186;9.222;2023-05-10T10:52:37;19.93;62.23
75170;SHT31;63749;49.186;9.222;2023-05-10T11:00:18;20.00;62.15
75170;SHT31;63749;49.186;9.222;2023-05-10T11:02:44;20.71;61.15
75170;SHT31;63749;49.186;9.222;2023-05-10T11:07:55;20.39;61.51
75170;SHT31;63749;49.186;9.222;2023-05-10T11:10:22;20.00;62.40
75170;SHT31;63749;49.186;9.222;2023-05-10T11:13:04;20.18;62.66
75170;SHT31;63749;49.186;9.222;2023-05-10T11:15:35;20.27;63.42
75170;SHT31;63749;49.186;9.222;2023-05-10T11:20:42;19.46;63.31
75170;SHT31;63749;49.186;9.222;2023-05-10T11:23:12;19.42;63.08
75170;SHT31;63749;49.186;9.222;2023-05-10T11:25:42;19.33;63.01
75170;SHT31;63749;49.186;9.222;2023-05-10T11:28:08;19.71;62.89
75170;SHT31;63749;49.186;9.222;2023-05-10T11:30:36;19.65;63.02
75170;SHT31;63749;49.186;9.222;2023-05-10T11:33:01;19.78;62.66
75170;SHT31;63749;49.186;9.222;2023-05-10T11:35:27;19.63;62.56
75170;SHT31;63749;49.186;9.222;2023-05-10T11:37:53;19.63;62.29
75170;SHT31;63749;49.186;9.222;2023-05-10T11:40:18;19.45;61.37
75170;SHT31;63749;49.186;9.222;2023-05-10T11:42:44;19.29;58.94
75170;SHT31;63749;49.186;9.222;2023-05-10T11:45:10;18.99;60.44
75170;SHT31;63749;49.186;9.222;2023-05-10T11:47:36;18.84;61.31
75170;SHT31;63749;49.186;9.222;2023-05-10T11:50:02;18.54;61.96
75170;SHT31;63749;49.186;9.222;2023-05-10T11:52:27;18.19;62.98
75170;SHT31;63749;49.186;9.222;2023-05-10T11:54:54;17.75;64.90
75170;SHT31;63749;49.186;9.222;2023-05-10T11:57:20;17.21;66.43
75170;SHT31;63749;49.186;9.222;2023-05-10T11:59:54;17.27;67.02
75170;SHT31;63749;49.186;9.222;2023-05-10T12:02:20;17.21;68.44
75170;SHT31;63749;49.186;9.222;2023-05-10T12:04:46;17.07;68.12
75170;SHT31;63749;49.186;9.222;2023-05-10T12:07:11;16.87;69.25
75170;SHT31;63749;49.186;9.222;2023-05-10T12:09:37;16.87;69.42
75170;SHT31;63749;49.186;9.222;2023-05-10T12:12:02;17.06;69.15
75170;SHT31;63749;49.186;9.222;2023-05-10T12:14:27;17.26;68.59
75170;SHT31;63749;49.186;9.222;2023-05-10T12:16:53;17.60;68.18
75170;SHT31;63749;49.186;9.222;2023-05-10T12:19:22;17.95;67.19
75170;SHT31;63749;49.186;9.222;2023-05-10T12:21:47;18.09;66.87
75170;SHT31;63749;49.186;9.222;2023-05-10T12:24:13;18.37;66.43
75170;SHT31;63749;49.186;9.222;2023-05-10T12:26:41;18.33;66.67
75170;SHT31;63749;49.186;9.222;2023-05-10T12:31:55;18.46;65.85
75170;SHT31;63749;49.186;9.222;2023-05-10T12:36:52;18.30;66.48
75170;SHT31;63749;49.186;9.222;2023-05-10T12:39:17;18.39;65.17
75170;SHT31;63749;49.186;9.222;2023-05-10T12:41:43;18.12;65.06
75170;SHT31;63749;49.186;9.222;2023-05-10T12:44:08;18.32;65.12
75170;SHT31;63749;49.186;9.222;2023-05-10T12:46:33;18.44;63.24
75170;SHT31;63749;49.186;9.222;2023-05-10T12:48:59;18.39;63.60
75170;SHT31;63749;49.186;9.222;2023-05-10T12:51:24;18.60;62.19
75170;SHT31;63749;49.186;9.222;2023-05-10T12:53:49;18.70;61.72
75170;SHT31;63749;49.186;9.222;2023-05-10T12:56:15;18.88;61.87
75170;SHT31;63749;49.186;9.222;2023-05-10T12:58:40;19.20;60.18
75170;SHT31;63749;49.186;9.222;2023-05-10T13:01:06;19.81;60.42
75170;SHT31;63749;49.186;9.222;2023-05-10T13:03:31;20.17;59.40
75170;SHT31;63749;49.186;9.222;2023-05-10T13:05:57;20.66;57.32
75170;SHT31;63749;49.186;9.222;2023-05-10T13:08:22;20.27;58.45
75170;SHT31;63749;49.186;9.222;2023-05-10T13:10:48;20.01;59.59
75170;SHT31;63749;49.186;9.222;2023-05-10T13:13:14;20.00;59.45
75170;SHT31;63749;49.186;9.222;2023-05-10T13:15:39;19.98;59.63
75170;SHT31;63749;49.186;9.222;2023-05-10T13:18:04;20.20;57.06
75170;SHT31;63749;49.186;9.222;2023-05-10T13:20:30;20.14;56.29
75170;SHT31;63749;49.186;9.222;2023-05-10T13:22:55;19.76;56.63
75170;SHT31;63749;49.186;9.222;2023-05-10T13:25:21;19.74;57.02
75170;SHT31;63749;49.186;9.222;2023-05-10T13:27:46;19.63;57.49
75170;SHT31;63749;49.186;9.222;2023-05-10T13:30:11;19.84;57.21
75170;SHT31;63749;49.186;9.222;2023-05-10T13:32:37;19.93;57.44
75170;SHT31;63749;49.186;9.222;2023-05-10T13:35:03;20.25;55.92
75170;SHT31;63749;49.186;9.222;2023-05-10T13:37:30;20.24;55.98
75170;SHT31;63749;49.186;9.222;2023-05-10T13:39:56;20.52;55.66
75170;SHT31;63749;49.186;9.222;2023-05-10T13:42:22;20.72;54.65
75170;SHT31;63749;49.186;9.222;2023-05-10T13:44:48;20.80;55.22
75170;SHT31;63749;49.186;9.222;2023-05-10T13:47:13;20.92;53.79
75170;SHT31;63749;49.186;9.222;2023-05-10T13:49:39;21.07;52.39
75170;SHT31;63749;49.186;9.222;2023-05-10T13:52:04;21.33;50.45
75170;SHT31;63749;49.186;9.222;2023-05-10T13:54:33;21.38;49.50
75170;SHT31;63749;49.186;9.222;2023-05-10T13:56:58;21.35;49.35
75170;SHT31;63749;49.186;9.222;2023-05-10T13:59:24;21.55;47.99
75170;SHT31;63749;49.186;9.222;2023-05-10T14:01:49;21.72;48.16
75170;SHT31;63749;49.186;9.222;2023-05-10T14:04:14;21.64;46.94
75170;SHT31;63749;49.186;9.222;2023-05-10T14:06:40;21.44;47.00
75170;SHT31;63749;49.186;9.222;2023-05-10T14:09:05;20.93;48.53
75170;SHT31;63749;49.186;9.222;2023-05-10T14:11:31;21.03;49.55
75170;SHT31;63749;49.186;9.222;2023-05-10T14:13:56;21.22;49.98
75170;SHT31;63749;49.186;9.222;2023-05-10T14:16:21;20.62;50.65
75170;SHT31;63749;49.186;9.222;2023-05-10T14:18:47;20.58;51.03
75170;SHT31;63749;49.186;9.222;2023-05-10T14:21:12;20.27;51.39
75170;SHT31;63749;49.186;9.222;2023-05-10T14:23:38;19.83;53.40
75170;SHT31;63749;49.186;9.222;2023-05-10T14:26:03;19.77;52.55
75170;SHT31;63749;49.186;9.222;2023-05-10T14:28:29;19.49;53.25
75170;SHT31;63749;49.186;9.222;2023-05-10T14:30:54;19.30;54.58
75170;SHT31;63749;49.186;9.222;2023-05-10T14:33:20;19.25;54.49
75170;SHT31;63749;49.186;9.222;2023-05-10T14:35:46;19.18;54.74
75170;SHT31;63749;49.186;9.222;2023-05-10T14:38:12;19.20;54.53
75170;SHT31;63749;49.186;9.222;2023-05-10T14:40:37;19.35;54.50
75170;SHT31;63749;49.186;9.222;2023-05-10T14:43:03;19.45;54.04
75170;SHT31;63749;49.186;9.222;2023-05-10T14:45:28;19.39;52.85
75170;SHT31;63749;49.186;9.222;2023-05-10T14:47:53;19.28;53.02
75170;SHT31;63749;49.186;9.222;2023-05-10T14:50:19;19.25;53.33
75170;SHT31;63749;49.186;9.222;2023-05-10T14:52:44;19.35;53.45
75170;SHT31;63749;49.186;9.222;2023-05-10T14:55:10;19.28;52.81
75170;SHT31;63749;49.186;9.222;2023-05-10T14:57:35;19.11;53.44
75170;SHT31;63749;49.186;9.222;2023-05-10T15:00:01;19.05;53.65
75170;SHT31;63749;49.186;9.222;2023-05-10T15:02:27;18.97;54.58
75170;SHT31;63749;49.186;9.222;2023-05-10T15:04:52;19.16;54.14
75170;SHT31;63749;49.186;9.222;2023-05-10T15:07:18;19.15;54.43
75170;SHT31;63749;49.186;9.222;2023-05-10T15:09:44;19.26;53.87
75170;SHT31;63749;49.186;9.222;2023-05-10T15:12:09;19.36;54.36
75170;SHT31;63749;49.186;9.222;2023-05-10T15:14:35;19.53;53.33
75170;SHT31;63749;49.186;9.222;2023-05-10T15:17:01;19.66;52.54
75170;SHT31;63749;49.186;9.222;2023-05-10T15:19:26;19.83;52.15
75170;SHT31;63749;49.186;9.222;2023-05-10T15:21:52;19.84;51.71
75170;SHT31;63749;49.186;9.222;2023-05-10T15:24:17;19.77;51.75
75170;SHT31;63749;49.186;9.222;2023-05-10T15:26:43;19.97;51.25
75170;SHT31;63749;49.186;9.222;2023-05-10T15:29:08;20.07;51.01
75170;SHT31;63749;49.186;9.222;2023-05-10T15:31:34;20.07;51.52
75170;SHT31;63749;49.186;9.222;2023-05-10T15:34:00;19.97;51.92
75170;SHT31;63749;49.186;9.222;2023-05-10T15:36:26;20.00;51.11
75170;SHT31;63749;49.186;9.222;2023-05-10T15:38:53;20.07;51.55
75170;SHT31;63749;49.186;9.222;2023-05-10T15:41:18;20.14;50.72
75170;SHT31;63749;49.186;9.222;2023-05-10T15:43:44;19.87;51.44
75170;SHT31;63749;49.186;9.222;2023-05-10T15:46:09;19.83;50.81
75170;SHT31;63749;49.186;9.222;2023-05-10T15:48:35;19.78;51.35
75170;SHT31;63749;49.186;9.222;2023-05-10T15:51:00;19.77;51.06
75170;SHT31;63749;49.186;9.222;2023-05-10T15:53:26;19.74;51.37
75170;SHT31;63749;49.186;9.222;2023-05-10T15:55:51;19.56;52.11
75170;SHT31;63749;49.186;9.222;2023-05-10T15:58:16;19.63;51.70
75170;SHT31;63749;49.186;9.222;2023-05-10T16:00:42;19.53;52.39
75170;SHT31;63749;49.186;9.222;2023-05-10T16:03:07;19.63;52.39
75170;SHT31;63749;49.186;9.222;2023-05-10T16:05:33;19.78;51.91
75170;SHT31;63749;49.186;9.222;2023-05-10T16:07:59;19.73;51.84
75170;SHT31;63749;49.186;9.222;2023-05-10T16:10:26;19.60;52.34
75170;SHT31;63749;49.186;9.222;2023-05-10T16:12:53;19.57;52.68
75170;SHT31;63749;49.186;9.222;2023-05-10T16:15:19;19.65;51.89
75170;SHT31;63749;49.186;9.222;2023-05-10T16:17:46;19.60;51.60